createdAt,value
2023-05-02T00:00:26.868Z,1.88
2023-05-02T00:01:28.666Z,1.85
2023-05-02T00:02:32.886Z,1.85
2023-05-02T00:03:35.101Z,1.90
2023-05-02T00:04:38.051Z,1.70
2023-05-02T00:05:40.646Z,1.80
2023-05-02T00:06:43.486Z,1.77
2023-05-02T00:07:45.573Z,2.17
2023-05-02T00:08:49.911Z,1.90
2023-05-02T00:09:51.618Z,1.80
2023-05-02T00:10:54.471Z,1.90
2023-05-02T00:11:56.159Z,1.90
2023-05-02T00:12:58.862Z,1.90
2023-05-02T00:14:00.581Z,1.90
2023-05-02T00:15:03.270Z,1.67
2023-05-02T00:16:05.767Z,1.80
2023-05-02T00:17:08.537Z,1.70
2023-05-02T00:18:11.966Z,1.83
2023-05-02T00:19:14.789Z,2.05
2023-05-02T00:20:16.476Z,1.98
2023-05-02T00:21:19.151Z,1.90
2023-05-02T00:22:20.838Z,2.10
2023-05-02T00:23:23.907Z,1.80
2023-05-02T00:24:26.823Z,1.92
2023-05-02T00:25:29.652Z,1.92
2023-05-02T00:26:31.333Z,1.67
2023-05-02T00:27:34.529Z,1.90
2023-05-02T00:28:36.592Z,1.70
2023-05-02T00:29:39.407Z,2.00
2023-05-02T00:30:44.342Z,1.88
2023-05-02T00:31:47.013Z,1.77
2023-05-02T00:32:48.768Z,1.65
2023-05-02T00:33:52.863Z,1.50
2023-05-02T00:34:54.596Z,1.70
2023-05-02T00:35:57.364Z,1.63
2023-05-02T00:36:59.305Z,2.10
2023-05-02T00:38:02.007Z,1.90
2023-05-02T00:39:04.302Z,2.00
2023-05-02T00:40:08.473Z,1.83
2023-05-02T00:41:10.803Z,1.63
2023-05-02T00:42:13.438Z,1.83
2023-05-02T00:43:15.697Z,1.70
2023-05-02T00:44:18.526Z,1.80
2023-05-02T00:45:20.332Z,1.90
2023-05-02T00:46:23.127Z,1.73
2023-05-02T00:47:25.037Z,2.10
2023-05-02T00:48:27.993Z,1.80
2023-05-02T00:49:31.182Z,1.90
2023-05-02T00:50:33.943Z,1.75
2023-05-02T00:51:35.677Z,1.73
2023-05-02T00:52:38.784Z,1.70
2023-05-02T00:53:40.976Z,2.00
2023-05-02T00:54:44.931Z,1.90
2023-05-02T00:55:46.997Z,2.10
2023-05-02T00:56:49.679Z,2.20
2023-05-02T00:57:51.504Z,2.10
2023-05-02T00:58:54.922Z,2.05
2023-05-02T00:59:57.407Z,2.38
2023-05-02T01:01:15.992Z,1.95
2023-05-02T01:02:28.895Z,2.25
2023-05-02T01:03:38.093Z,2.05
2023-05-02T01:04:51.047Z,1.88
2023-05-02T01:06:00.624Z,2.10
2023-05-02T01:07:13.286Z,2.13
2023-05-02T01:08:21.297Z,2.10
2023-05-02T01:09:34.067Z,2.20
2023-05-02T01:10:50.036Z,2.30
2023-05-02T01:11:57.054Z,1.95
2023-05-02T01:13:03.847Z,2.42
2023-05-02T01:14:06.182Z,2.13
2023-05-02T01:15:11.469Z,2.38
2023-05-02T01:16:14.654Z,2.40
2023-05-02T01:17:18.279Z,2.25
2023-05-02T01:18:22.896Z,2.05
2023-05-02T01:19:27.662Z,2.55
2023-05-02T01:20:31.379Z,2.40
2023-05-02T01:21:34.717Z,2.22
2023-05-02T01:22:38.549Z,2.58
2023-05-02T01:23:52.693Z,2.90
2023-05-02T01:25:00.690Z,2.50
2023-05-02T01:26:11.762Z,2.47
2023-05-02T01:27:19.064Z,2.30
2023-05-02T01:28:30.349Z,2.42
2023-05-02T01:29:33.586Z,2.60
2023-05-02T01:30:39.722Z,2.55
2023-05-02T01:31:43.466Z,2.67
2023-05-02T01:32:47.749Z,2.60
2023-05-02T01:33:50.321Z,2.70
2023-05-02T01:34:54.253Z,2.60
2023-05-02T01:35:56.350Z,2.95
2023-05-02T01:36:59.963Z,2.50
2023-05-02T01:38:03.295Z,2.65
2023-05-02T01:39:07.437Z,2.67
2023-05-02T01:40:10.484Z,3.05
2023-05-02T01:41:14.208Z,2.83
2023-05-02T01:42:16.843Z,2.90
2023-05-02T01:43:21.525Z,2.70
2023-05-02T01:44:24.429Z,2.90
2023-05-02T01:45:29.283Z,3.28
2023-05-02T01:46:33.330Z,3.22
2023-05-02T01:47:37.158Z,2.92
2023-05-02T01:48:39.279Z,2.90
2023-05-02T01:49:42.621Z,3.20
2023-05-02T01:50:45.564Z,3.10
2023-05-02T01:51:49.460Z,2.88
2023-05-02T01:52:52.768Z,2.90
2023-05-02T01:53:55.472Z,2.92
2023-05-02T01:54:58.254Z,2.70
2023-05-02T01:56:01.595Z,2.83
2023-05-02T01:57:06.298Z,2.65
2023-05-02T01:58:09.067Z,3.08
2023-05-02T01:59:11.789Z,3.13
2023-05-02T02:00:15.333Z,2.83
2023-05-02T02:01:18.646Z,2.75
2023-05-02T02:02:22.336Z,2.88
2023-05-02T02:03:24.728Z,3.40
2023-05-02T02:04:27.711Z,2.78
2023-05-02T02:05:29.826Z,3.08
2023-05-02T02:06:32.625Z,3.20
2023-05-02T02:07:34.403Z,3.28
2023-05-02T02:08:37.310Z,2.92
2023-05-02T02:09:39.259Z,3.00
2023-05-02T02:10:44.879Z,3.08
2023-05-02T02:11:49.573Z,3.20
2023-05-02T02:12:53.840Z,3.08
2023-05-02T02:14:00.509Z,3.10
2023-05-02T02:15:07.944Z,3.90
2023-05-02T02:16:11.692Z,3.25
2023-05-02T02:17:19.488Z,3.40
2023-05-02T02:18:25.271Z,3.42
2023-05-02T02:19:28.621Z,3.85
2023-05-02T02:20:31.961Z,3.78
2023-05-02T02:21:35.636Z,3.13
2023-05-02T02:22:39.154Z,3.20
2023-05-02T02:23:44.029Z,3.20
2023-05-02T02:24:46.909Z,3.50
2023-05-02T02:25:50.335Z,3.45
2023-05-02T02:26:52.197Z,3.45
2023-05-02T02:27:55.002Z,4.00
2023-05-02T02:28:56.718Z,3.97
2023-05-02T02:29:59.692Z,3.50
2023-05-02T02:31:02.632Z,3.70
2023-05-02T02:32:05.539Z,3.83
2023-05-02T02:33:08.930Z,4.00
2023-05-02T02:34:11.710Z,3.47
2023-05-02T02:35:13.528Z,3.63
2023-05-02T02:36:21.474Z,3.33
2023-05-02T02:37:26.662Z,3.50
2023-05-02T02:38:33.598Z,2.80
2023-05-02T02:39:41.967Z,2.88
2023-05-02T02:40:47.267Z,2.85
2023-05-02T02:41:54.152Z,2.90
2023-05-02T02:43:01.570Z,2.78
2023-05-02T02:44:06.878Z,3.22
2023-05-02T02:45:17.897Z,3.20
2023-05-02T02:46:31.696Z,3.20
2023-05-02T02:47:37.376Z,3.55
2023-05-02T02:48:46.551Z,3.47
2023-05-02T02:49:50.884Z,3.72
2023-05-02T02:51:01.217Z,3.58
2023-05-02T02:52:06.470Z,3.70
2023-05-02T02:53:10.889Z,3.50
2023-05-02T02:54:25.933Z,3.90
2023-05-02T02:55:38.501Z,3.88
2023-05-02T02:56:42.259Z,3.58
2023-05-02T02:57:49.555Z,4.30
2023-05-02T02:58:56.866Z,3.53
2023-05-02T03:00:02.934Z,4.28
2023-05-02T03:01:06.784Z,4.22
2023-05-02T03:02:11.217Z,4.95
2023-05-02T03:03:14.538Z,4.53
2023-05-02T03:04:20.244Z,5.28
2023-05-02T03:05:22.781Z,4.68
2023-05-02T03:06:26.117Z,4.50
2023-05-02T03:07:28.247Z,4.70
2023-05-02T03:08:40.162Z,4.60
2023-05-02T03:09:42.410Z,3.92
2023-05-02T03:10:45.085Z,4.28
2023-05-02T03:11:46.828Z,4.55
2023-05-02T03:12:49.606Z,3.40
2023-05-02T03:13:52.764Z,5.00
2023-05-02T03:15:00.483Z,4.60
2023-05-02T03:16:34.662Z,5.53
2023-05-02T03:17:37.461Z,5.32
2023-05-02T03:18:40.449Z,5.82
2023-05-02T03:19:44.476Z,5.53
2023-05-02T03:20:46.218Z,5.10
2023-05-02T03:21:49.009Z,4.72
2023-05-02T03:22:50.734Z,5.88
2023-05-02T03:23:53.650Z,5.20
2023-05-02T03:24:56.322Z,5.35
2023-05-02T03:25:58.123Z,5.13
2023-05-02T03:27:00.915Z,5.65
2023-05-02T03:28:02.767Z,5.40
2023-05-02T03:29:05.467Z,5.65
2023-05-02T03:30:08.511Z,6.03
2023-05-02T03:31:11.223Z,5.65
2023-05-02T03:32:14.043Z,5.55
2023-05-02T03:33:15.859Z,5.43
2023-05-02T03:34:19.738Z,5.80
2023-05-02T03:35:23.054Z,5.35
2023-05-02T03:36:25.812Z,3.08
2023-05-02T03:37:27.486Z,4.50
2023-05-02T03:38:30.761Z,5.03
2023-05-02T03:39:32.490Z,5.72
2023-05-02T03:40:35.223Z,5.53
2023-05-02T03:41:37.048Z,5.30
2023-05-02T03:42:41.383Z,5.38
2023-05-02T03:43:43.053Z,5.88
2023-05-02T03:44:45.801Z,5.60
2023-05-02T03:45:48.743Z,5.80
2023-05-02T03:46:51.774Z,5.72
2023-05-02T03:47:53.617Z,5.70
2023-05-02T03:48:56.426Z,6.38
2023-05-02T03:49:59.319Z,6.68
2023-05-02T03:51:04.487Z,5.72
2023-05-02T03:52:06.249Z,6.60
2023-05-02T03:53:10.095Z,6.78
2023-05-02T03:54:11.846Z,6.72
2023-05-02T03:55:15.145Z,6.40
2023-05-02T03:56:20.172Z,7.40
2023-05-02T03:57:23.059Z,6.65
2023-05-02T03:58:25.583Z,7.05
2023-05-02T03:59:28.745Z,6.63
2023-05-02T04:00:31.607Z,6.30
2023-05-02T04:01:34.382Z,6.47
2023-05-02T04:02:36.368Z,7.40
2023-05-02T04:03:39.269Z,6.85
2023-05-02T04:04:41.170Z,6.85
2023-05-02T04:05:44.352Z,7.20
2023-05-02T04:06:47.521Z,6.95
2023-05-02T04:07:50.257Z,7.00
2023-05-02T04:08:51.904Z,6.10
2023-05-02T04:09:54.775Z,6.40
2023-05-02T04:10:57.561Z,6.18
2023-05-02T04:11:59.365Z,6.85
2023-05-02T04:13:03.082Z,7.00
2023-05-02T04:14:04.797Z,6.32
2023-05-02T04:15:08.564Z,6.47
2023-05-02T04:16:10.330Z,6.70
2023-05-02T04:17:13.632Z,6.47
2023-05-02T04:18:15.544Z,6.05
2023-05-02T04:19:19.120Z,6.20
2023-05-02T04:20:20.862Z,6.40
2023-05-02T04:21:23.545Z,6.53
2023-05-02T04:22:29.521Z,6.63
2023-05-02T04:23:32.240Z,6.10
2023-05-02T04:24:33.999Z,6.60
2023-05-02T04:25:36.707Z,6.57
2023-05-02T04:26:38.432Z,6.85
2023-05-02T04:27:41.095Z,6.82
2023-05-02T04:28:42.824Z,7.32
2023-05-02T04:29:45.592Z,6.45
2023-05-02T04:30:47.372Z,7.35
2023-05-02T04:31:50.921Z,7.38
2023-05-02T04:32:53.547Z,7.43
2023-05-02T04:33:56.301Z,7.40
2023-05-02T04:34:58.028Z,7.20
2023-05-02T04:36:01.185Z,8.95
2023-05-02T04:37:03.132Z,7.63
2023-05-02T04:38:07.249Z,7.47
2023-05-02T04:39:10.237Z,7.85
2023-05-02T04:40:13.024Z,7.53
2023-05-02T04:41:16.198Z,7.47
2023-05-02T04:42:17.978Z,8.18
2023-05-02T04:43:22.463Z,8.23
2023-05-02T04:44:26.190Z,7.70
2023-05-02T04:45:28.939Z,8.75
2023-05-02T04:46:30.836Z,8.50
2023-05-02T04:47:33.583Z,8.57
2023-05-02T04:48:35.355Z,8.90
2023-05-02T04:49:38.055Z,8.73
2023-05-02T04:50:41.059Z,8.30
2023-05-02T04:51:43.900Z,8.88
2023-05-02T04:52:45.658Z,8.88
2023-05-02T04:53:50.353Z,9.07
2023-05-02T04:54:52.396Z,9.18
2023-05-02T04:55:55.062Z,8.90
2023-05-02T04:56:57.711Z,9.48
2023-05-02T04:57:59.398Z,9.18
2023-05-02T04:59:02.110Z,9.88
2023-05-02T05:00:04.471Z,9.70
2023-05-02T05:01:07.233Z,9.25
2023-05-02T05:02:12.582Z,9.10
2023-05-02T05:03:15.539Z,9.82
2023-05-02T05:04:17.561Z,10.65
2023-05-02T05:05:20.389Z,9.32
2023-05-02T05:06:22.710Z,10.55
2023-05-02T05:07:25.673Z,10.52
2023-05-02T05:08:27.487Z,11.25
2023-05-02T05:09:31.550Z,10.48
2023-05-02T05:10:33.271Z,10.50
2023-05-02T05:11:36.055Z,10.18
2023-05-02T05:12:37.778Z,10.40
2023-05-02T05:13:40.519Z,10.50
2023-05-02T05:14:42.325Z,10.65
2023-05-02T05:15:45.358Z,10.27
2023-05-02T05:16:47.282Z,11.38
2023-05-02T05:17:50.084Z,12.40
2023-05-02T05:18:53.846Z,11.27
2023-05-02T05:19:56.581Z,11.52
2023-05-02T05:20:58.273Z,10.73
2023-05-02T05:22:01.048Z,12.20
2023-05-02T05:23:02.761Z,12.65
2023-05-02T05:24:06.268Z,12.63
2023-05-02T05:25:10.547Z,12.70
2023-05-02T05:26:15.258Z,13.27
2023-05-02T05:27:17.066Z,11.73
2023-05-02T05:28:19.851Z,12.30
2023-05-02T05:29:21.576Z,11.63
2023-05-02T05:30:25.494Z,12.30
2023-05-02T05:31:27.296Z,13.07
2023-05-02T05:32:30.077Z,13.02
2023-05-02T05:33:32.059Z,12.90
2023-05-02T05:34:34.735Z,13.32
2023-05-02T05:35:36.568Z,12.45
2023-05-02T05:36:41.051Z,14.23
2023-05-02T05:37:44.583Z,13.63
2023-05-02T05:38:46.373Z,14.32
2023-05-02T05:39:49.357Z,13.48
2023-05-02T05:40:52.464Z,14.90
2023-05-02T05:41:55.179Z,14.25
2023-05-02T05:42:56.928Z,14.63
2023-05-02T05:43:59.623Z,14.52
2023-05-02T05:45:01.356Z,14.77
2023-05-02T05:46:04.252Z,15.57
2023-05-02T05:47:06.001Z,14.63
2023-05-02T05:48:08.779Z,16.42
2023-05-02T05:49:10.610Z,14.60
2023-05-02T05:50:13.320Z,15.45
2023-05-02T05:51:15.081Z,16.25
2023-05-02T05:52:17.753Z,15.70
2023-05-02T05:53:19.645Z,15.00
2023-05-02T05:54:22.355Z,14.77
2023-05-02T05:55:24.135Z,15.75
2023-05-02T05:56:28.201Z,15.27
2023-05-02T05:57:30.148Z,15.23
2023-05-02T05:58:32.871Z,15.05
2023-05-02T05:59:37.583Z,16.05
2023-05-02T06:00:40.784Z,15.25
2023-05-02T06:01:42.821Z,14.77
2023-05-02T06:02:45.576Z,15.95
2023-05-02T06:03:47.624Z,15.63
2023-05-02T06:04:50.628Z,15.95
2023-05-02T06:05:52.533Z,15.35
2023-05-02T06:06:55.369Z,16.55
2023-05-02T06:07:57.390Z,15.23
2023-05-02T06:09:00.100Z,15.18
2023-05-02T06:10:02.102Z,15.40
2023-05-02T06:11:05.399Z,15.63
2023-05-02T06:12:08.433Z,16.13
2023-05-02T06:13:11.247Z,15.98
2023-05-02T06:14:12.938Z,15.45
2023-05-02T06:15:15.960Z,15.48
2023-05-02T06:16:18.226Z,14.93
2023-05-02T06:17:20.892Z,15.82
2023-05-02T06:18:22.666Z,15.27
2023-05-02T06:19:25.512Z,14.98
2023-05-02T06:20:28.381Z,15.02
2023-05-02T06:21:31.392Z,15.23
2023-05-02T06:22:33.051Z,15.75
2023-05-02T06:23:35.782Z,16.50
2023-05-02T06:24:38.471Z,15.85
2023-05-02T06:25:40.134Z,15.60
2023-05-02T06:26:42.845Z,14.98
2023-05-02T06:27:46.918Z,15.50
2023-05-02T06:28:48.607Z,15.18
2023-05-02T06:29:52.395Z,15.52
2023-05-02T06:30:57.882Z,15.50
2023-05-02T06:32:00.729Z,16.45
2023-05-02T06:33:04.552Z,14.98
2023-05-02T06:34:07.853Z,15.52
2023-05-02T06:35:10.206Z,14.68
2023-05-02T06:36:12.897Z,15.00
2023-05-02T06:37:14.690Z,15.48
2023-05-02T06:38:18.511Z,14.70
2023-05-02T06:39:20.199Z,16.40
2023-05-02T06:40:22.899Z,15.95
2023-05-02T06:41:25.530Z,14.85
2023-05-02T06:42:27.215Z,15.68
2023-05-02T06:43:31.281Z,15.30
2023-05-02T06:44:33.013Z,14.25
2023-05-02T06:45:35.701Z,14.73
2023-05-02T06:46:37.435Z,15.07
2023-05-02T06:47:40.227Z,14.75
2023-05-02T06:48:43.025Z,14.77
2023-05-02T06:49:44.762Z,14.25
2023-05-02T06:50:47.434Z,15.50
2023-05-02T06:51:50.255Z,15.00
2023-05-02T06:52:52.014Z,14.65
2023-05-02T06:53:54.688Z,13.80
2023-05-02T06:54:56.374Z,14.07
2023-05-02T06:55:59.144Z,14.02
2023-05-02T06:57:02.180Z,15.00
2023-05-02T06:58:03.909Z,15.02
2023-05-02T06:59:08.028Z,15.10
2023-05-02T07:00:11.004Z,14.52
2023-05-02T07:01:13.726Z,15.95
2023-05-02T07:02:15.431Z,14.57
2023-05-02T07:03:18.155Z,14.40
2023-05-02T07:04:20.029Z,14.85
2023-05-02T07:05:22.803Z,14.43
2023-05-02T07:06:24.745Z,13.85
2023-05-02T07:07:27.507Z,14.88
2023-05-02T07:08:30.195Z,13.90
2023-05-02T07:09:31.956Z,14.23
2023-05-02T07:10:34.883Z,14.68
2023-05-02T07:11:36.653Z,14.15
2023-05-02T07:12:40.070Z,14.68
2023-05-02T07:13:41.786Z,14.80
2023-05-02T07:14:46.891Z,14.65
2023-05-02T07:15:48.746Z,13.75
2023-05-02T07:16:51.535Z,14.18
2023-05-02T07:17:53.767Z,13.13
2023-05-02T07:18:56.540Z,13.80
2023-05-02T07:19:59.617Z,13.80
2023-05-02T07:21:02.467Z,13.55
2023-05-02T07:22:05.383Z,13.68
2023-05-02T07:23:07.132Z,13.52
2023-05-02T07:24:09.814Z,13.85
2023-05-02T07:25:11.830Z,14.23
2023-05-02T07:26:14.512Z,14.18
2023-05-02T07:27:16.172Z,13.48
2023-05-02T07:28:18.987Z,13.82
2023-05-02T07:29:20.669Z,13.32
2023-05-02T07:30:24.925Z,13.52
2023-05-02T07:31:26.870Z,12.70
2023-05-02T07:32:29.618Z,14.50
2023-05-02T07:33:32.431Z,13.48
2023-05-02T07:34:34.148Z,12.07
2023-05-02T07:35:36.838Z,12.02
2023-05-02T07:36:39.392Z,12.45
2023-05-02T07:37:42.126Z,12.15
2023-05-02T07:38:43.843Z,12.75
2023-05-02T07:39:46.572Z,11.98
2023-05-02T07:40:49.244Z,11.98
2023-05-02T07:41:52.399Z,11.70
2023-05-02T07:42:55.128Z,12.27
2023-05-02T07:43:58.309Z,11.65
2023-05-02T07:45:00.308Z,11.95
2023-05-02T07:46:09.305Z,11.63
2023-05-02T07:47:12.046Z,10.93
2023-05-02T07:48:14.767Z,11.70
2023-05-02T07:49:16.515Z,11.70
2023-05-02T07:50:19.364Z,11.25
2023-05-02T07:51:21.616Z,11.20
2023-05-02T07:52:24.318Z,11.20
2023-05-02T07:53:26.302Z,12.02
2023-05-02T07:54:28.982Z,11.50
2023-05-02T07:55:33.210Z,12.70
2023-05-02T07:56:36.196Z,11.48
2023-05-02T07:57:38.937Z,11.63
2023-05-02T07:58:41.650Z,11.35
2023-05-02T07:59:44.296Z,12.15
2023-05-02T08:00:46.745Z,11.43
2023-05-02T08:01:50.815Z,12.00
2023-05-02T08:02:53.722Z,11.65
2023-05-02T08:03:56.770Z,11.63
2023-05-02T08:04:59.713Z,11.38
2023-05-02T08:06:04.005Z,11.73
2023-05-02T08:07:05.767Z,10.98
2023-05-02T08:08:08.588Z,10.57
2023-05-02T08:09:11.225Z,11.45
2023-05-02T08:10:13.923Z,11.52
2023-05-02T08:11:16.707Z,11.70
2023-05-02T08:12:19.381Z,11.60
2023-05-02T08:13:21.221Z,10.73
2023-05-02T08:14:23.881Z,10.73
2023-05-02T08:15:25.797Z,11.15
2023-05-02T08:16:28.594Z,10.60
2023-05-02T08:17:31.951Z,11.20
2023-05-02T08:18:34.666Z,9.82
2023-05-02T08:19:36.356Z,8.30
2023-05-02T08:20:39.048Z,7.95
2023-05-02T08:21:42.429Z,8.02
2023-05-02T08:22:44.143Z,9.13
2023-05-02T08:23:47.277Z,8.07
2023-05-02T08:24:49.982Z,7.68
2023-05-02T08:25:52.751Z,7.18
2023-05-02T08:26:54.443Z,7.65
2023-05-02T08:27:57.237Z,7.15
2023-05-02T08:29:01.057Z,7.22
2023-05-02T08:30:03.295Z,8.23
2023-05-02T08:31:06.508Z,6.88
2023-05-02T08:32:09.401Z,7.38
2023-05-02T08:33:13.540Z,8.25
2023-05-02T08:34:15.348Z,7.90
2023-05-02T08:35:18.239Z,8.05
2023-05-02T08:36:19.939Z,7.68
2023-05-02T08:37:22.751Z,6.85
2023-05-02T08:38:25.498Z,7.80
2023-05-02T08:39:28.122Z,8.93
2023-05-02T08:40:41.425Z,8.77
2023-05-02T08:41:45.591Z,8.18
2023-05-02T08:42:48.311Z,8.00
2023-05-02T08:43:50.030Z,8.60
2023-05-02T08:44:52.810Z,9.40
2023-05-02T08:45:55.673Z,8.52
2023-05-02T08:46:57.689Z,8.73
2023-05-02T08:48:01.233Z,8.98
2023-05-02T08:49:06.766Z,8.98
2023-05-02T08:50:09.403Z,7.72
2023-05-02T08:51:15.303Z,8.57
2023-05-02T08:52:17.930Z,9.13
2023-05-02T08:53:21.147Z,8.68
2023-05-02T08:54:25.844Z,7.53
2023-05-02T08:55:27.713Z,8.50
2023-05-02T08:56:30.785Z,7.78
2023-05-02T08:57:33.543Z,8.60
2023-05-02T08:58:36.666Z,8.20
2023-05-02T08:59:39.413Z,9.07
2023-05-02T09:00:42.174Z,8.25
2023-05-02T09:01:47.586Z,8.00
2023-05-02T09:02:57.227Z,7.57
2023-05-02T09:04:00.002Z,7.78
2023-05-02T09:05:07.573Z,7.57
2023-05-02T09:06:12.842Z,8.20
2023-05-02T09:07:15.757Z,8.35
2023-05-02T09:08:22.368Z,7.90
2023-05-02T09:09:25.500Z,7.25
2023-05-02T09:10:29.804Z,8.38
2023-05-02T09:11:32.461Z,8.07
2023-05-02T09:12:34.144Z,7.80
2023-05-02T09:13:38.419Z,8.18
2023-05-02T09:14:41.106Z,7.05
2023-05-02T09:15:42.904Z,8.93
2023-05-02T09:16:45.774Z,8.10
2023-05-02T09:17:48.322Z,7.72
2023-05-02T09:18:52.819Z,7.68
2023-05-02T09:20:01.322Z,8.77
2023-05-02T09:21:08.916Z,8.60
2023-05-02T09:22:11.876Z,8.25
2023-05-02T09:23:14.203Z,7.88
2023-05-02T09:24:18.069Z,7.60
2023-05-02T09:25:19.970Z,7.80
2023-05-02T09:26:23.715Z,8.65
2023-05-02T09:27:26.205Z,8.82
2023-05-02T09:28:43.175Z,8.35
2023-05-02T09:29:47.049Z,7.55
2023-05-02T09:30:49.901Z,7.82
2023-05-02T09:31:56.180Z,8.10
2023-05-02T09:32:59.389Z,7.80
2023-05-02T09:34:10.108Z,8.27
2023-05-02T09:35:13.553Z,6.70
2023-05-02T09:36:20.091Z,7.53
2023-05-02T09:37:35.190Z,8.23
2023-05-02T09:38:38.871Z,7.22
2023-05-02T09:39:41.671Z,7.85
2023-05-02T09:40:54.596Z,8.35
2023-05-02T09:41:58.108Z,7.90
2023-05-02T09:42:59.850Z,7.90
2023-05-02T09:44:02.557Z,7.88
2023-05-02T09:45:05.064Z,7.53
2023-05-02T09:46:09.229Z,7.72
2023-05-02T09:47:11.082Z,7.70
2023-05-02T09:48:15.128Z,7.50
2023-05-02T09:49:20.069Z,8.10
2023-05-02T09:50:35.029Z,7.72
2023-05-02T09:51:39.461Z,7.80
2023-05-02T09:52:42.224Z,7.35
2023-05-02T09:53:45.497Z,8.32
2023-05-02T09:54:50.562Z,7.30
2023-05-02T09:56:01.210Z,7.68
2023-05-02T09:57:04.636Z,7.45
2023-05-02T09:58:06.623Z,8.05
2023-05-02T09:59:16.338Z,8.13
2023-05-02T10:00:20.053Z,7.88
2023-05-02T10:01:22.716Z,7.97
2023-05-02T10:02:24.904Z,7.65
2023-05-02T10:03:31.870Z,8.05
2023-05-02T10:04:38.840Z,8.48
2023-05-02T10:05:40.986Z,7.38
2023-05-02T10:06:45.421Z,7.78
2023-05-02T10:07:47.464Z,7.88
2023-05-02T10:08:50.303Z,8.25
2023-05-02T10:09:53.086Z,8.05
2023-05-02T10:10:57.072Z,8.40
2023-05-02T10:12:04.924Z,7.35
2023-05-02T10:13:08.933Z,7.53
2023-05-02T10:14:12.916Z,7.63
2023-05-02T10:15:16.318Z,8.15
2023-05-02T10:16:25.014Z,7.07
2023-05-02T10:17:29.813Z,7.35
2023-05-02T10:18:40.017Z,7.35
2023-05-02T10:19:46.592Z,7.78
2023-05-02T10:20:58.018Z,7.53
2023-05-02T10:22:03.005Z,7.43
2023-05-02T10:23:05.074Z,7.95
2023-05-02T10:24:07.870Z,7.70
2023-05-02T10:25:09.834Z,8.52
2023-05-02T10:26:16.070Z,7.25
2023-05-02T10:27:17.876Z,7.20
2023-05-02T10:28:20.900Z,7.32
2023-05-02T10:29:23.676Z,6.32
2023-05-02T10:30:25.904Z,6.20
2023-05-02T10:31:29.420Z,6.22
2023-05-02T10:32:33.828Z,5.90
2023-05-02T10:33:36.780Z,5.85
2023-05-02T10:34:39.345Z,7.07
2023-05-02T10:35:45.669Z,5.80
2023-05-02T10:36:49.013Z,6.05
2023-05-02T10:37:52.596Z,5.70
2023-05-02T10:38:55.998Z,5.93
2023-05-02T10:39:59.029Z,6.18
2023-05-02T10:41:03.128Z,6.22
2023-05-02T10:42:06.155Z,6.30
2023-05-02T10:43:09.086Z,6.18
2023-05-02T10:44:11.031Z,6.22
2023-05-02T10:45:14.648Z,5.82
2023-05-02T10:46:31.650Z,5.80
2023-05-02T10:47:34.421Z,6.30
2023-05-02T10:48:38.419Z,6.28
2023-05-02T10:49:51.037Z,5.70
2023-05-02T10:50:53.693Z,6.10
2023-05-02T10:51:56.433Z,5.60
2023-05-02T10:52:59.809Z,5.55
2023-05-02T10:54:24.787Z,5.97
2023-05-02T10:55:26.490Z,6.38
2023-05-02T10:56:29.353Z,5.78
2023-05-02T10:57:31.082Z,5.78
2023-05-02T10:58:33.755Z,5.57
2023-05-02T10:59:38.183Z,5.53
2023-05-02T11:00:40.037Z,5.15
2023-05-02T11:01:43.007Z,5.32
2023-05-02T11:02:49.141Z,5.18
2023-05-02T11:03:56.414Z,5.30
2023-05-02T11:05:04.417Z,5.45
2023-05-02T11:06:06.961Z,5.22
2023-05-02T11:07:19.897Z,5.07
2023-05-02T11:08:32.991Z,5.22
2023-05-02T11:09:34.818Z,5.35
2023-05-02T11:10:37.529Z,5.68
2023-05-02T11:11:41.099Z,5.72
2023-05-02T11:12:48.903Z,4.90
2023-05-02T11:13:50.815Z,4.85
2023-05-02T11:14:53.524Z,5.32
2023-05-02T11:15:56.938Z,5.72
2023-05-02T11:17:10.174Z,4.63
2023-05-02T11:18:13.501Z,4.80
2023-05-02T11:19:16.241Z,4.68
2023-05-02T11:20:21.796Z,4.15
2023-05-02T11:21:29.626Z,4.13
2023-05-02T11:22:31.695Z,4.85
2023-05-02T11:23:36.984Z,4.60
2023-05-02T11:24:39.726Z,4.63
2023-05-02T11:25:43.506Z,4.30
2023-05-02T11:26:45.225Z,5.15
2023-05-02T11:27:49.338Z,4.70
2023-05-02T11:28:52.740Z,4.60
2023-05-02T11:29:54.975Z,4.75
2023-05-02T11:30:58.044Z,4.60
2023-05-02T11:31:59.849Z,4.18
2023-05-02T11:33:29.624Z,3.88
2023-05-02T11:34:43.533Z,3.90
2023-05-02T11:35:46.821Z,3.92
2023-05-02T11:36:49.536Z,3.88
2023-05-02T11:37:53.711Z,4.30
2023-05-02T11:38:57.736Z,3.50
2023-05-02T11:40:11.699Z,3.90
2023-05-02T11:41:14.486Z,3.30
2023-05-02T11:42:29.368Z,3.72
2023-05-02T11:43:32.740Z,3.72
2023-05-02T11:44:35.785Z,3.42
2023-05-02T11:45:39.178Z,3.50
2023-05-02T11:46:42.278Z,3.00
2023-05-02T11:47:46.200Z,3.40
2023-05-02T11:48:49.915Z,3.40
2023-05-02T11:49:51.871Z,3.17
2023-05-02T11:50:56.404Z,3.33
2023-05-02T11:52:00.138Z,2.70
2023-05-02T11:53:01.931Z,3.13
2023-05-02T11:54:07.694Z,2.85
2023-05-02T11:55:15.868Z,2.55
2023-05-02T11:56:24.690Z,3.00
2023-05-02T11:57:27.917Z,2.47
2023-05-02T11:58:32.735Z,2.85
2023-05-02T11:59:50.828Z,2.35
2023-05-02T12:00:54.498Z,2.47
2023-05-02T12:01:58.146Z,2.83
2023-05-02T12:03:00.062Z,2.65
2023-05-02T12:04:04.047Z,2.70
2023-05-02T12:05:06.694Z,2.72
2023-05-02T12:06:12.282Z,3.08
2023-05-02T12:07:14.472Z,2.22
2023-05-02T12:08:22.633Z,2.25
2023-05-02T12:09:26.942Z,2.70
2023-05-02T12:10:36.497Z,2.40
2023-05-02T12:11:39.188Z,2.25
2023-05-02T12:12:43.962Z,2.10
2023-05-02T12:13:48.796Z,2.28
2023-05-02T12:14:50.758Z,2.45
2023-05-02T12:15:55.079Z,2.00
2023-05-02T12:16:59.509Z,2.47
2023-05-02T12:18:01.502Z,2.00
2023-05-02T12:19:04.799Z,2.55
2023-05-02T12:20:07.969Z,2.40
2023-05-02T12:21:11.036Z,2.30
2023-05-02T12:22:14.504Z,2.38
2023-05-02T12:23:16.454Z,2.20
2023-05-02T12:24:19.287Z,2.17
2023-05-02T12:25:22.384Z,2.10
2023-05-02T12:26:29.549Z,1.90
2023-05-02T12:27:33.293Z,1.92
2023-05-02T12:28:50.433Z,1.90
2023-05-02T12:29:53.166Z,2.30
2023-05-02T12:30:56.016Z,2.08
2023-05-02T12:31:59.923Z,1.48
2023-05-02T12:33:03.681Z,1.77
2023-05-02T12:34:06.491Z,2.00
2023-05-02T12:35:21.580Z,2.15
2023-05-02T12:36:24.349Z,2.22
2023-05-02T12:37:28.357Z,1.92
2023-05-02T12:38:31.173Z,1.95
2023-05-02T12:39:36.651Z,2.00
2023-05-02T12:40:47.003Z,1.80
2023-05-02T12:41:49.653Z,2.00
2023-05-02T12:43:01.252Z,1.92
2023-05-02T12:44:04.308Z,2.03
2023-05-02T12:45:16.936Z,2.00
2023-05-02T12:46:20.167Z,2.28
2023-05-02T12:47:22.715Z,1.65
2023-05-02T12:48:26.833Z,1.83
2023-05-02T12:49:29.483Z,1.90
2023-05-02T12:50:38.106Z,2.20
2023-05-02T12:51:41.760Z,1.85
2023-05-02T12:52:47.519Z,2.05
2023-05-02T12:53:50.403Z,2.08
2023-05-02T12:54:53.301Z,2.00
2023-05-02T12:56:03.782Z,2.22
2023-05-02T12:57:06.577Z,2.20
2023-05-02T12:58:09.223Z,1.95
2023-05-02T12:59:13.177Z,1.92
2023-05-02T13:00:18.162Z,2.30
2023-05-02T13:01:20.877Z,2.17
2023-05-02T13:02:23.871Z,2.67
2023-05-02T13:03:28.240Z,3.30
2023-05-02T13:04:37.591Z,3.65
2023-05-02T13:05:40.355Z,3.20
2023-05-02T13:06:42.600Z,2.40
2023-05-02T13:07:46.080Z,2.78
2023-05-02T13:08:48.745Z,3.05
2023-05-02T13:09:50.430Z,3.47
2023-05-02T13:10:53.207Z,3.45
2023-05-02T13:11:57.092Z,3.45
2023-05-02T13:12:59.763Z,3.67
2023-05-02T13:14:04.166Z,2.97
2023-05-02T13:15:08.444Z,3.72
2023-05-02T13:16:11.451Z,3.15
2023-05-02T13:17:13.383Z,2.42
2023-05-02T13:18:16.274Z,2.70
2023-05-02T13:19:19.011Z,3.42
2023-05-02T13:20:22.024Z,2.80
2023-05-02T13:21:24.802Z,2.97
2023-05-02T13:22:26.856Z,3.25
2023-05-02T13:23:29.544Z,3.10
2023-05-02T13:24:31.244Z,2.60
2023-05-02T13:25:33.931Z,3.40
2023-05-02T13:26:35.649Z,2.90
2023-05-02T13:27:41.032Z,3.20
2023-05-02T13:28:43.723Z,2.90
2023-05-02T13:29:46.066Z,3.20
2023-05-02T13:30:48.985Z,2.70
2023-05-02T13:31:50.764Z,2.85
2023-05-02T13:32:53.794Z,2.38
2023-05-02T13:33:55.785Z,2.97
2023-05-02T13:34:58.548Z,3.00
2023-05-02T13:36:00.492Z,2.53
2023-05-02T13:37:03.152Z,2.65
2023-05-02T13:38:04.840Z,2.38
2023-05-02T13:39:07.672Z,2.53
2023-05-02T13:40:09.953Z,2.70
2023-05-02T13:41:12.705Z,2.42
2023-05-02T13:42:14.434Z,2.10
2023-05-02T13:43:18.460Z,1.90
2023-05-02T13:44:20.311Z,2.40
2023-05-02T13:45:23.142Z,1.77
2023-05-02T13:46:24.850Z,2.10
2023-05-02T13:47:27.673Z,2.10
2023-05-02T13:48:30.063Z,2.15
2023-05-02T13:49:32.724Z,2.10
2023-05-02T13:50:37.336Z,1.85
2023-05-02T13:51:39.145Z,1.75
2023-05-02T13:52:41.848Z,2.00
2023-05-02T13:53:44.527Z,1.67
2023-05-02T13:54:46.239Z,1.80
2023-05-02T13:55:49.069Z,2.17
2023-05-02T13:56:50.791Z,1.92
2023-05-02T13:57:53.455Z,1.90
2023-05-02T13:58:57.681Z,2.00
2023-05-02T14:00:00.791Z,1.90
2023-05-02T14:01:02.699Z,2.00
2023-05-02T14:02:05.994Z,1.88
2023-05-02T14:03:11.191Z,1.88